カトマンズ の空港の天気 - METARとTAF

トリブバン国際空港 ( VNKT / KTM ) - ネパール カトマンズ
飛行場実況気象(Metar)
観測時間12/06 16:45 NPT (12/06 11:00 UTC)
風向・風速南西 3m/s
視程10km以上
天気現象
少しの雲 雲底高度 610m
気温17℃
湿度55%
気圧1016hPa
METARVNKT 061100Z 23005KT 9999 FEW020 17/08 Q1016 NOSIG
過去の天気等 Google飛行場航空写真 Wunderground天気予報

過去48時間のMETAR

飛行場予報(TAF)
発表時間: 12/06 10:45 NPT (12/06 05:00 UTC)
予報対象時間: 6日11時 NPT ~ 7日11時 NPT
風向・風速東 2m/s
視程7000m
少しの雲 雲底高度 460m
6日13時 NPT ~ 6日14時 NPT に徐々に
風向・風速西 4m/s
視程8000m
少しの雲 雲底高度 610m
6日19時 NPT ~ 6日20時 NPT に徐々に
風向・風速東 2m/s
視程7000m
少しの雲 雲底高度 460m
7日5時 NPT ~ 7日7時 NPT に徐々に
風向・風速不定 1m/s
視程4000m
天気現象もや
少しの雲 雲底高度 460m
7日6時 NPT から 確率 30% で
視程3000m
天気現象もや
7日10時 NPT ~ 7日11時 NPT に徐々に
風向・風速南南東 2m/s
視程6000m
少しの雲 雲底高度 460m
TAF VNKT 060500Z 0606/0706 10003KT 7000 FEW015
BECMG 0608/0609 27008KT 8000 FEW020
BECMG 0614/0615 10003KT 7000 FEW015
BECMG 0700/0702 VRB02KT 4000 BR FEW015
PROB30 0701/0703 3000 BR
BECMG 0705/0706 15003KT 6000 FEW015